sensor_id;sensor_type;location;lat;lon;timestamp;pressure;altitude;pressure_sealevel;temperature;humidity
54122;BME280;40029;58.708;50.190;2024-03-08T00:02:01;99065.09;;;-4.82;80.25
54122;BME280;40029;58.708;50.190;2024-03-08T00:04:33;99056.50;;;-4.82;80.36
54122;BME280;40029;58.708;50.190;2024-03-08T00:07:04;99058.28;;;-4.77;80.40
54122;BME280;40029;58.708;50.190;2024-03-08T00:09:35;99058.28;;;-4.77;80.38
54122;BME280;40029;58.708;50.190;2024-03-08T00:12:07;99050.53;;;-4.77;80.41
54122;BME280;40029;58.708;50.190;2024-03-08T00:14:38;99042.81;;;-4.75;80.05
54122;BME280;40029;58.708;50.190;2024-03-08T00:17:09;99040.19;;;-4.78;80.33
54122;BME280;40029;58.708;50.190;2024-03-08T00:19:41;99044.59;;;-4.68;79.90
54122;BME280;40029;58.708;50.190;2024-03-08T00:22:12;99041.13;;;-4.69;79.81
54122;BME280;40029;58.708;50.190;2024-03-08T00:24:43;99038.56;;;-4.67;80.10
54122;BME280;40029;58.708;50.190;2024-03-08T00:27:14;99034.28;;;-4.67;79.88
54122;BME280;40029;58.708;50.190;2024-03-08T00:29:46;99031.59;;;-4.76;80.09
54122;BME280;40029;58.708;50.190;2024-03-08T00:32:18;99038.47;;;-4.78;80.01
54122;BME280;40029;58.708;50.190;2024-03-08T00:35:08;99028.19;;;-4.75;80.00
54122;BME280;40029;58.708;50.190;2024-03-08T00:37:39;99033.38;;;-4.72;80.00
54122;BME280;40029;58.708;50.190;2024-03-08T00:40:10;99026.47;;;-4.77;80.28
54122;BME280;40029;58.708;50.190;2024-03-08T00:42:42;99018.72;;;-4.79;80.37
54122;BME280;40029;58.708;50.190;2024-03-08T00:45:14;99020.47;;;-4.73;79.99
54122;BME280;40029;58.708;50.190;2024-03-08T00:47:45;99016.16;;;-4.74;80.01
54122;BME280;40029;58.708;50.190;2024-03-08T00:50:17;99011.88;;;-4.74;79.99
54122;BME280;40029;58.708;50.190;2024-03-08T00:52:49;99011.84;;;-4.77;80.27
54122;BME280;40029;58.708;50.190;2024-03-08T00:55:20;99010.91;;;-4.83;80.51
54122;BME280;40029;58.708;50.190;2024-03-08T00:57:52;99010.94;;;-4.82;80.83
54122;BME280;40029;58.708;50.190;2024-03-08T01:00:24;99014.41;;;-4.78;80.48
54122;BME280;40029;58.708;50.190;2024-03-08T01:02:56;99007.56;;;-4.75;80.67
54122;BME280;40029;58.708;50.190;2024-03-08T01:05:27;99004.09;;;-4.77;80.88
54122;BME280;40029;58.708;50.190;2024-03-08T01:07:58;99005.84;;;-4.74;81.01
54122;BME280;40029;58.708;50.190;2024-03-08T01:10:30;99006.72;;;-4.74;80.78
54122;BME280;40029;58.708;50.190;2024-03-08T01:13:01;99009.28;;;-4.72;80.98
54122;BME280;40029;58.708;50.190;2024-03-08T01:15:32;99005.81;;;-4.79;81.07
54122;BME280;40029;58.708;50.190;2024-03-08T01:18:03;99006.72;;;-4.74;81.07
54122;BME280;40029;58.708;50.190;2024-03-08T01:20:54;99004.09;;;-4.78;80.77
54122;BME280;40029;58.708;50.190;2024-03-08T01:23:25;98998.03;;;-4.82;81.28
54122;BME280;40029;58.708;50.190;2024-03-08T01:25:56;99002.38;;;-4.81;81.48
54122;BME280;40029;58.708;50.190;2024-03-08T01:28:27;98992.88;;;-4.82;81.88
54122;BME280;40029;58.708;50.190;2024-03-08T01:30:59;98993.75;;;-4.80;81.32
54122;BME280;40029;58.708;50.190;2024-03-08T01:33:30;98998.06;;;-4.76;81.55
54122;BME280;40029;58.708;50.190;2024-03-08T01:36:02;98988.66;;;-4.75;81.04
54122;BME280;40029;58.708;50.190;2024-03-08T01:38:34;98989.50;;;-4.76;81.21
54122;BME280;40029;58.708;50.190;2024-03-08T01:41:05;98984.31;;;-4.78;81.06
54122;BME280;40029;58.708;50.190;2024-03-08T01:43:36;98992.09;;;-4.75;80.85
54122;BME280;40029;58.708;50.190;2024-03-08T01:46:09;98983.44;;;-4.85;80.95
54122;BME280;40029;58.708;50.190;2024-03-08T01:48:40;98992.00;;;-4.86;80.89
54122;BME280;40029;58.708;50.190;2024-03-08T01:51:13;98988.53;;;-4.89;80.91
54122;BME280;40029;58.708;50.190;2024-03-08T01:53:47;98987.69;;;-4.90;80.94
54122;BME280;40029;58.708;50.190;2024-03-08T01:56:19;98980.78;;;-4.89;81.07
54122;BME280;40029;58.708;50.190;2024-03-08T01:58:50;98976.56;;;-4.82;81.02
54122;BME280;40029;58.708;50.190;2024-03-08T02:01:23;98984.22;;;-4.92;81.91
54122;BME280;40029;58.708;50.190;2024-03-08T02:03:55;98975.63;;;-4.91;81.28
54122;BME280;40029;58.708;50.190;2024-03-08T02:06:27;98966.94;;;-5.04;81.68
54122;BME280;40029;58.708;50.190;2024-03-08T02:08:58;98973.00;;;-5.01;81.71
54122;BME280;40029;58.708;50.190;2024-03-08T02:11:30;98967.88;;;-4.91;81.57
54122;BME280;40029;58.708;50.190;2024-03-08T02:14:01;98971.34;;;-4.92;81.22
54122;BME280;40029;58.708;50.190;2024-03-08T02:16:33;98967.00;;;-4.94;81.06
54122;BME280;40029;58.708;50.190;2024-03-08T02:19:04;98967.81;;;-5.05;81.32
54122;BME280;40029;58.708;50.190;2024-03-08T02:21:35;98966.09;;;-5.02;81.66
54122;BME280;40029;58.708;50.190;2024-03-08T02:24:08;98964.38;;;-5.02;81.29
54122;BME280;40029;58.708;50.190;2024-03-08T02:26:39;98951.53;;;-4.97;82.00
54122;BME280;40029;58.708;50.190;2024-03-08T02:29:28;98954.94;;;-5.00;81.33
54122;BME280;40029;58.708;50.190;2024-03-08T02:32:01;98956.69;;;-4.94;81.27
54122;BME280;40029;58.708;50.190;2024-03-08T02:34:32;98961.00;;;-4.95;81.79
54122;BME280;40029;58.708;50.190;2024-03-08T02:37:03;98957.56;;;-4.94;81.76
54122;BME280;40029;58.708;50.190;2024-03-08T02:39:34;98954.13;;;-4.93;81.69
54122;BME280;40029;58.708;50.190;2024-03-08T02:42:07;98945.56;;;-4.92;81.80
54122;BME280;40029;58.708;50.190;2024-03-08T02:44:42;98938.72;;;-4.83;81.43
54122;BME280;40029;58.708;50.190;2024-03-08T02:47:14;98934.44;;;-4.80;81.49
54122;BME280;40029;58.708;50.190;2024-03-08T02:49:46;98933.63;;;-4.77;81.16
54122;BME280;40029;58.708;50.190;2024-03-08T02:52:17;98935.38;;;-4.72;81.11
54122;BME280;40029;58.708;50.190;2024-03-08T02:54:48;98924.19;;;-4.68;80.80
54122;BME280;40029;58.708;50.190;2024-03-08T02:57:39;98929.38;;;-4.64;80.84
54122;BME280;40029;58.708;50.190;2024-03-08T03:00:10;98924.22;;;-4.61;80.44
54122;BME280;40029;58.708;50.190;2024-03-08T03:02:42;98915.66;;;-4.57;80.38
54122;BME280;40029;58.708;50.190;2024-03-08T03:05:13;98916.47;;;-4.63;80.56
54122;BME280;40029;58.708;50.190;2024-03-08T03:07:44;98910.50;;;-4.59;80.37
54122;BME280;40029;58.708;50.190;2024-03-08T03:10:19;98918.22;;;-4.60;80.29
54122;BME280;40029;58.708;50.190;2024-03-08T03:12:52;98921.69;;;-4.54;80.20
54122;BME280;40029;58.708;50.190;2024-03-08T03:15:24;98919.13;;;-4.55;80.48
54122;BME280;40029;58.708;50.190;2024-03-08T03:17:55;98915.66;;;-4.57;80.43
54122;BME280;40029;58.708;50.190;2024-03-08T03:20:45;98919.13;;;-4.52;80.29
54122;BME280;40029;58.708;50.190;2024-03-08T03:23:16;98917.38;;;-4.58;80.66
54122;BME280;40029;58.708;50.190;2024-03-08T03:25:51;98912.22;;;-4.58;80.37
54122;BME280;40029;58.708;50.190;2024-03-08T03:28:23;98907.94;;;-4.53;80.34
54122;BME280;40029;58.708;50.190;2024-03-08T03:30:54;98907.91;;;-4.60;80.17
54122;BME280;40029;58.708;50.190;2024-03-08T03:33:29;98912.19;;;-4.59;80.25
54122;BME280;40029;58.708;50.190;2024-03-08T03:36:01;98912.25;;;-4.53;80.27
54122;BME280;40029;58.708;50.190;2024-03-08T03:38:32;98909.66;;;-4.53;80.26
54122;BME280;40029;58.708;50.190;2024-03-08T03:41:05;98913.97;;;-4.55;79.98
54122;BME280;40029;58.708;50.190;2024-03-08T03:43:42;98907.06;;;-4.56;80.17
54122;BME280;40029;58.708;50.190;2024-03-08T03:46:13;98907.91;;;-4.56;79.86
54122;BME280;40029;58.708;50.190;2024-03-08T03:48:44;98909.63;;;-4.58;80.05
54122;BME280;40029;58.708;50.190;2024-03-08T03:51:15;98908.78;;;-4.58;80.02
54122;BME280;40029;58.708;50.190;2024-03-08T03:53:46;98910.50;;;-4.54;79.88
54122;BME280;40029;58.708;50.190;2024-03-08T03:56:18;98910.44;;;-4.70;80.56
54122;BME280;40029;58.708;50.190;2024-03-08T03:58:50;98907.03;;;-4.64;80.35
54122;BME280;40029;58.708;50.190;2024-03-08T04:01:22;98906.13;;;-4.71;80.69
54122;BME280;40029;58.708;50.190;2024-03-08T04:03:53;98911.31;;;-4.61;80.46
54122;BME280;40029;58.708;50.190;2024-03-08T04:06:43;98910.47;;;-4.67;80.17
54122;BME280;40029;58.708;50.190;2024-03-08T04:09:15;98902.72;;;-4.62;80.01
54122;BME280;40029;58.708;50.190;2024-03-08T04:11:49;98912.22;;;-4.56;80.29
54122;BME280;40029;58.708;50.190;2024-03-08T04:14:23;98911.31;;;-4.66;80.24
54122;BME280;40029;58.708;50.190;2024-03-08T04:16:54;98908.75;;;-4.64;80.48
54122;BME280;40029;58.708;50.190;2024-03-08T04:19:26;98921.63;;;-4.63;80.46
54122;BME280;40029;58.708;50.190;2024-03-08T04:21:59;98914.78;;;-4.58;80.08
54122;BME280;40029;58.708;50.190;2024-03-08T04:24:31;98916.47;;;-4.63;80.70
54122;BME280;40029;58.708;50.190;2024-03-08T04:27:03;98917.41;;;-4.50;80.54
54122;BME280;40029;58.708;50.190;2024-03-08T04:29:35;98911.38;;;-4.52;80.39
54122;BME280;40029;58.708;50.190;2024-03-08T04:32:07;98906.25;;;-4.48;80.52
54122;BME280;40029;58.708;50.190;2024-03-08T04:34:40;98914.88;;;-4.38;80.31
54122;BME280;40029;58.708;50.190;2024-03-08T04:37:11;98907.97;;;-4.43;79.99
54122;BME280;40029;58.708;50.190;2024-03-08T04:39:44;98900.25;;;-4.36;79.77
54122;BME280;40029;58.708;50.190;2024-03-08T04:42:15;98902.03;;;-4.25;79.69
54122;BME280;40029;58.708;50.190;2024-03-08T04:44:49;98908.91;;;-4.26;79.07
54122;BME280;40029;58.708;50.190;2024-03-08T04:47:20;98897.69;;;-4.36;80.01
54122;BME280;40029;58.708;50.190;2024-03-08T04:49:51;98902.88;;;-4.30;80.13
54122;BME280;40029;58.708;50.190;2024-03-08T04:52:23;98902.06;;;-4.16;79.87
54122;BME280;40029;58.708;50.190;2024-03-08T04:54:54;98900.34;;;-4.10;79.13
54122;BME280;40029;58.708;50.190;2024-03-08T04:57:25;98898.69;;;-3.88;78.94
54122;BME280;40029;58.708;50.190;2024-03-08T04:59:56;98895.25;;;-3.80;78.24
54122;BME280;40029;58.708;50.190;2024-03-08T05:02:29;98890.13;;;-3.74;78.25
54122;BME280;40029;58.708;50.190;2024-03-08T05:05:00;98883.22;;;-3.67;77.89
54122;BME280;40029;58.708;50.190;2024-03-08T05:07:31;98876.31;;;-3.76;77.68
54122;BME280;40029;58.708;50.190;2024-03-08T05:10:04;98871.16;;;-3.61;76.92
54122;BME280;40029;58.708;50.190;2024-03-08T05:12:35;98874.59;;;-3.43;77.20
54122;BME280;40029;58.708;50.190;2024-03-08T05:15:07;98878.06;;;-3.54;76.81
54122;BME280;40029;58.708;50.190;2024-03-08T05:17:38;98872.88;;;-3.47;77.58
54122;BME280;40029;58.708;50.190;2024-03-08T05:20:11;98882.38;;;-3.30;76.80
54122;BME280;40029;58.708;50.190;2024-03-08T05:23:02;98884.97;;;-3.19;76.43
54122;BME280;40029;58.708;50.190;2024-03-08T05:25:34;98875.44;;;-3.23;76.06
54122;BME280;40029;58.708;50.190;2024-03-08T05:28:05;98866.00;;;-3.12;76.47
54122;BME280;40029;58.708;50.190;2024-03-08T05:30:38;98869.41;;;-3.06;75.13
54122;BME280;40029;58.708;50.190;2024-03-08T05:33:09;98871.13;;;-2.96;75.75
54122;BME280;40029;58.708;50.190;2024-03-08T05:35:41;98868.53;;;-2.95;75.23
54122;BME280;40029;58.708;50.190;2024-03-08T05:38:12;98868.53;;;-2.98;75.07
54122;BME280;40029;58.708;50.190;2024-03-08T05:40:43;98867.66;;;-3.04;75.12
54122;BME280;40029;58.708;50.190;2024-03-08T05:43:15;98870.25;;;-2.87;74.89
54122;BME280;40029;58.708;50.190;2024-03-08T05:45:48;98870.22;;;-2.78;74.40
54122;BME280;40029;58.708;50.190;2024-03-08T05:48:19;98863.25;;;-2.64;74.14
54122;BME280;40029;58.708;50.190;2024-03-08T05:50:50;98866.75;;;-2.74;74.09
54122;BME280;40029;58.708;50.190;2024-03-08T05:53:22;98864.94;;;-2.52;73.35
54122;BME280;40029;58.708;50.190;2024-03-08T05:55:53;98870.97;;;-2.50;73.19
54122;BME280;40029;58.708;50.190;2024-03-08T05:58:25;98871.88;;;-2.53;72.06
54122;BME280;40029;58.708;50.190;2024-03-08T06:00:56;98868.31;;;-2.30;73.11
54122;BME280;40029;58.708;50.190;2024-03-08T06:03:27;98862.28;;;-2.34;72.57
54122;BME280;40029;58.708;50.190;2024-03-08T06:05:58;98864.88;;;-2.32;72.25
54122;BME280;40029;58.708;50.190;2024-03-08T06:08:29;98855.31;;;-2.24;71.69
54122;BME280;40029;58.708;50.190;2024-03-08T06:11:01;98852.78;;;-2.36;72.56
54122;BME280;40029;58.708;50.190;2024-03-08T06:13:33;98851.03;;;-2.33;71.23
54122;BME280;40029;58.708;50.190;2024-03-08T06:16:04;98849.34;;;-2.35;71.72
54122;BME280;40029;58.708;50.190;2024-03-08T06:18:36;98850.22;;;-2.44;71.71
54122;BME280;40029;58.708;50.190;2024-03-08T06:21:08;98852.06;;;-2.61;71.43
54122;BME280;40029;58.708;50.190;2024-03-08T06:23:42;98852.06;;;-2.77;72.11
54122;BME280;40029;58.708;50.190;2024-03-08T06:26:32;98853.72;;;-2.48;71.42
54122;BME280;40029;58.708;50.190;2024-03-08T06:29:04;98858.00;;;-2.42;71.47
54122;BME280;40029;58.708;50.190;2024-03-08T06:31:37;98856.25;;;-2.39;71.45
54122;BME280;40029;58.708;50.190;2024-03-08T06:34:09;98855.38;;;-2.35;71.33
54122;BME280;40029;58.708;50.190;2024-03-08T06:37:00;98852.78;;;-2.36;71.45
54122;BME280;40029;58.708;50.190;2024-03-08T06:39:32;98851.94;;;-2.37;71.78
54122;BME280;40029;58.708;50.190;2024-03-08T06:42:05;98857.00;;;-2.15;71.55
54122;BME280;40029;58.708;50.190;2024-03-08T06:44:36;98850.09;;;-2.10;70.82
54122;BME280;40029;58.708;50.190;2024-03-08T06:47:09;98848.94;;;-1.67;70.42
54122;BME280;40029;58.708;50.190;2024-03-08T06:49:40;98847.13;;;-1.59;70.28
54122;BME280;40029;58.708;50.190;2024-03-08T06:52:12;98848.81;;;-1.52;70.19
54122;BME280;40029;58.708;50.190;2024-03-08T06:55:01;98858.16;;;-1.31;69.42
54122;BME280;40029;58.708;50.190;2024-03-08T06:57:36;98849.63;;;-1.45;68.65
54122;BME280;40029;58.708;50.190;2024-03-08T07:00:08;98854.66;;;-1.27;68.63
54122;BME280;40029;58.708;50.190;2024-03-08T07:02:44;98852.00;;;-1.24;68.99
54122;BME280;40029;58.708;50.190;2024-03-08T07:05:24;98854.66;;;-1.30;68.90
54122;BME280;40029;58.708;50.190;2024-03-08T07:07:56;98850.22;;;-1.14;69.09
54122;BME280;40029;58.708;50.190;2024-03-08T07:10:27;98850.03;;;-0.94;67.74
54122;BME280;40029;58.708;50.190;2024-03-08T07:12:59;98849.41;;;-1.24;68.27
54122;BME280;40029;58.708;50.190;2024-03-08T07:15:33;98849.16;;;-0.96;67.82
54122;BME280;40029;58.708;50.190;2024-03-08T07:18:04;98848.28;;;-0.93;68.60
54122;BME280;40029;58.708;50.190;2024-03-08T07:20:35;98850.13;;;-1.03;68.03
54122;BME280;40029;58.708;50.190;2024-03-08T07:23:08;98841.31;;;-0.91;66.51
54122;BME280;40029;58.708;50.190;2024-03-08T07:25:39;98847.44;;;-0.94;67.58
54122;BME280;40029;58.708;50.190;2024-03-08T07:28:10;98841.53;;;-1.10;66.86
54122;BME280;40029;58.708;50.190;2024-03-08T07:31:01;98849.03;;;-0.84;66.26
54122;BME280;40029;58.708;50.190;2024-03-08T07:33:50;98843.84;;;-0.84;67.14
54122;BME280;40029;58.708;50.190;2024-03-08T07:36:21;98842.22;;;-0.94;66.03
54122;BME280;40029;58.708;50.190;2024-03-08T07:38:53;98840.41;;;-0.86;66.88
54122;BME280;40029;58.708;50.190;2024-03-08T07:41:43;98842.97;;;-0.83;65.90
54122;BME280;40029;58.708;50.190;2024-03-08T07:44:14;98850.03;;;-0.97;66.60
54122;BME280;40029;58.708;50.190;2024-03-08T07:46:45;98849.28;;;-1.08;66.46
54122;BME280;40029;58.708;50.190;2024-03-08T07:49:16;98844.84;;;-0.97;67.32
54122;BME280;40029;58.708;50.190;2024-03-08T07:51:47;98844.72;;;-0.85;66.89
54122;BME280;40029;58.708;50.190;2024-03-08T07:54:19;98853.09;;;-0.61;66.18
54122;BME280;40029;58.708;50.190;2024-03-08T07:56:51;98849.25;;;-1.05;66.86
54122;BME280;40029;58.708;50.190;2024-03-08T07:59:22;98847.47;;;-1.00;67.13
54122;BME280;40029;58.708;50.190;2024-03-08T08:01:53;98846.50;;;-0.88;65.90
54122;BME280;40029;58.708;50.190;2024-03-08T08:04:24;98845.56;;;-0.83;66.88
54122;BME280;40029;58.708;50.190;2024-03-08T08:06:56;98842.91;;;-0.78;66.61
54122;BME280;40029;58.708;50.190;2024-03-08T08:09:27;98847.22;;;-0.75;65.67
54122;BME280;40029;58.708;50.190;2024-03-08T08:12:05;98845.47;;;-0.73;66.57
54122;BME280;40029;58.708;50.190;2024-03-08T08:14:38;98843.63;;;-0.65;65.83
54122;BME280;40029;58.708;50.190;2024-03-08T08:17:10;98841.22;;;-0.81;66.52
54122;BME280;40029;58.708;50.190;2024-03-08T08:19:41;98843.72;;;-0.74;65.94
54122;BME280;40029;58.708;50.190;2024-03-08T08:22:12;98841.84;;;-0.62;66.87
54122;BME280;40029;58.708;50.190;2024-03-08T08:24:43;98846.25;;;-0.67;65.90
54122;BME280;40029;58.708;50.190;2024-03-08T08:27:14;98843.72;;;-0.71;66.22
54122;BME280;40029;58.708;50.190;2024-03-08T08:29:45;98839.50;;;-0.83;66.46
54122;BME280;40029;58.708;50.190;2024-03-08T08:32:16;98841.03;;;-0.65;66.44
54122;BME280;40029;58.708;50.190;2024-03-08T08:34:49;98841.00;;;-0.61;65.02
54122;BME280;40029;58.708;50.190;2024-03-08T08:37:20;98836.28;;;-0.29;65.02
54122;BME280;40029;58.708;50.190;2024-03-08T08:39:51;98833.38;;;-0.08;64.07
54122;BME280;40029;58.708;50.190;2024-03-08T08:42:24;98834.66;;;-0.38;65.56
54122;BME280;40029;58.708;50.190;2024-03-08T08:44:55;98834.50;;;-0.27;64.62
54122;BME280;40029;58.708;50.190;2024-03-08T08:47:28;98829.75;;;0.03;63.92
54122;BME280;40029;58.708;50.190;2024-03-08T08:49:59;98831.56;;;-0.03;64.16
54122;BME280;40029;58.708;50.190;2024-03-08T08:52:32;98837.16;;;-0.33;64.38
54122;BME280;40029;58.708;50.190;2024-03-08T08:55:22;98834.50;;;-0.26;64.58
54122;BME280;40029;58.708;50.190;2024-03-08T08:57:56;98837.97;;;-0.28;64.17
54122;BME280;40029;58.708;50.190;2024-03-08T09:00:28;98836.53;;;-0.51;65.34
54122;BME280;40029;58.708;50.190;2024-03-08T09:03:02;98837.59;;;-0.67;65.79
54122;BME280;40029;58.708;50.190;2024-03-08T09:05:33;98840.06;;;-0.55;66.00
54122;BME280;40029;58.708;50.190;2024-03-08T09:08:05;98834.53;;;-0.30;64.77
54122;BME280;40029;58.708;50.190;2024-03-08T09:10:36;98830.91;;;-0.17;64.91
54122;BME280;40029;58.708;50.190;2024-03-08T09:13:07;98833.19;;;0.06;63.95
54122;BME280;40029;58.708;50.190;2024-03-08T09:15:41;98834.53;;;-0.30;64.98
54122;BME280;40029;58.708;50.190;2024-03-08T09:18:12;98831.97;;;-0.33;65.66
54122;BME280;40029;58.708;50.190;2024-03-08T09:20:43;98840.25;;;-0.04;64.88
54122;BME280;40029;58.708;50.190;2024-03-08T09:23:14;98838.25;;;0.15;63.83
54122;BME280;40029;58.708;50.190;2024-03-08T09:26:06;98843.66;;;-0.68;65.19
54122;BME280;40029;58.708;50.190;2024-03-08T09:28:39;98839.84;;;-0.40;64.85
54122;BME280;40029;58.708;50.190;2024-03-08T09:31:11;98839.97;;;-0.47;65.01
54122;BME280;40029;58.708;50.190;2024-03-08T09:33:43;98838.56;;;-0.78;65.54
54122;BME280;40029;58.708;50.190;2024-03-08T09:36:14;98839.50;;;-0.83;66.04
54122;BME280;40029;58.708;50.190;2024-03-08T09:38:45;98841.34;;;-0.93;67.41
54122;BME280;40029;58.708;50.190;2024-03-08T09:41:16;98847.28;;;-0.82;66.21
54122;BME280;40029;58.708;50.190;2024-03-08T09:43:48;98849.63;;;-0.60;65.08
54122;BME280;40029;58.708;50.190;2024-03-08T09:46:19;98848.69;;;-0.53;65.58
54122;BME280;40029;58.708;50.190;2024-03-08T09:49:11;98842.69;;;-0.58;64.80
54122;BME280;40029;58.708;50.190;2024-03-08T09:51:43;98843.72;;;-0.74;66.10
54122;BME280;40029;58.708;50.190;2024-03-08T09:54:34;98848.59;;;-0.45;66.22
54122;BME280;40029;58.708;50.190;2024-03-08T09:57:06;98845.59;;;-0.14;65.07
54122;BME280;40029;58.708;50.190;2024-03-08T09:59:40;98851.97;;;-0.38;65.80
54122;BME280;40029;58.708;50.190;2024-03-08T10:02:14;98844.94;;;-0.32;65.44
54122;BME280;40029;58.708;50.190;2024-03-08T10:04:46;98853.44;;;-0.19;65.32
54122;BME280;40029;58.708;50.190;2024-03-08T10:07:17;98850.16;;;-0.33;65.91
54122;BME280;40029;58.708;50.190;2024-03-08T10:09:51;98847.84;;;-0.53;66.46
54122;BME280;40029;58.708;50.190;2024-03-08T10:12:23;98849.41;;;-0.42;66.41
54122;BME280;40029;58.708;50.190;2024-03-08T10:14:55;98849.97;;;-0.18;65.48
54122;BME280;40029;58.708;50.190;2024-03-08T10:17:27;98841.94;;;-0.01;64.96
54122;BME280;40029;58.708;50.190;2024-03-08T10:20:03;98849.50;;;0.14;64.54
54122;BME280;40029;58.708;50.190;2024-03-08T10:22:45;98845.88;;;0.26;63.93
54122;BME280;40029;58.708;50.190;2024-03-08T10:25:18;98854.13;;;-0.05;64.59
54122;BME280;40029;58.708;50.190;2024-03-08T10:27:49;98856.75;;;-0.08;64.92
54122;BME280;40029;58.708;50.190;2024-03-08T10:30:20;98851.53;;;-0.05;64.93
54122;BME280;40029;58.708;50.190;2024-03-08T10:32:52;98854.00;;;0.03;64.43
54122;BME280;40029;58.708;50.190;2024-03-08T10:35:23;98855.09;;;-0.12;64.42
54122;BME280;40029;58.708;50.190;2024-03-08T10:38:15;98861.59;;;-0.48;65.79
54122;BME280;40029;58.708;50.190;2024-03-08T10:40:51;98860.72;;;-0.46;66.20
54122;BME280;40029;58.708;50.190;2024-03-08T10:43:24;98867.50;;;-0.35;65.15
54122;BME280;40029;58.708;50.190;2024-03-08T10:46:23;98857.59;;;-0.75;66.49
54122;BME280;40029;58.708;50.190;2024-03-08T10:49:03;98861.06;;;-0.76;66.93
54122;BME280;40029;58.708;50.190;2024-03-08T10:51:37;98866.25;;;-0.76;67.56
54122;BME280;40029;58.708;50.190;2024-03-08T10:54:11;98855.91;;;-0.80;68.02
54122;BME280;40029;58.708;50.190;2024-03-08T10:56:42;98864.59;;;-0.84;67.61
54122;BME280;40029;58.708;50.190;2024-03-08T10:59:14;98870.97;;;-1.17;69.05
54122;BME280;40029;58.708;50.190;2024-03-08T11:01:46;98866.72;;;-1.23;68.59
54122;BME280;40029;58.708;50.190;2024-03-08T11:04:18;98871.75;;;-1.06;68.44
54122;BME280;40029;58.708;50.190;2024-03-08T11:07:02;98879.44;;;-0.97;68.54
54122;BME280;40029;58.708;50.190;2024-03-08T11:09:37;98870.63;;;-0.80;67.46
54122;BME280;40029;58.708;50.190;2024-03-08T11:12:22;98877.56;;;-0.84;67.59
54122;BME280;40029;58.708;50.190;2024-03-08T11:14:59;98876.91;;;-1.04;69.17
54122;BME280;40029;58.708;50.190;2024-03-08T11:20:12;98874.97;;;-0.81;67.65
54122;BME280;40029;58.708;50.190;2024-03-08T11:22:52;98877.69;;;-0.94;69.02
54122;BME280;40029;58.708;50.190;2024-03-08T11:25:36;98881.91;;;-0.83;68.48
54122;BME280;40029;58.708;50.190;2024-03-08T11:28:21;98884.53;;;-0.87;69.19
54122;BME280;40029;58.708;50.190;2024-03-08T11:31:24;98879.31;;;-0.83;68.42
54122;BME280;40029;58.708;50.190;2024-03-08T11:33:56;98879.25;;;-0.78;68.49
54122;BME280;40029;58.708;50.190;2024-03-08T11:36:28;98881.91;;;-0.83;68.43
54122;BME280;40029;58.708;50.190;2024-03-08T11:39:01;98881.09;;;-0.91;69.25
54122;BME280;40029;58.708;50.190;2024-03-08T11:41:40;98883.88;;;-1.11;70.87
54122;BME280;40029;58.708;50.190;2024-03-08T11:44:31;98881.91;;;-0.83;68.63
54122;BME280;40029;58.708;50.190;2024-03-08T11:47:02;98892.31;;;-0.86;68.47
54122;BME280;40029;58.708;50.190;2024-03-08T11:49:57;98887.97;;;-0.84;68.38
54122;BME280;40029;58.708;50.190;2024-03-08T11:52:28;98889.72;;;-0.84;68.78
54122;BME280;40029;58.708;50.190;2024-03-08T11:55:01;98879.34;;;-0.87;69.37
54122;BME280;40029;58.708;50.190;2024-03-08T11:57:32;98885.34;;;-0.81;68.97
54122;BME280;40029;58.708;50.190;2024-03-08T12:00:22;98887.28;;;-1.00;70.22
54122;BME280;40029;58.708;50.190;2024-03-08T12:03:06;98888.22;;;-1.08;70.45
54122;BME280;40029;58.708;50.190;2024-03-08T12:05:38;98884.72;;;-1.06;70.22
54122;BME280;40029;58.708;50.190;2024-03-08T12:08:09;98878.00;;;-1.25;71.09
54122;BME280;40029;58.708;50.190;2024-03-08T12:10:43;98880.47;;;-1.14;70.48
54122;BME280;40029;58.708;50.190;2024-03-08T12:13:34;98882.25;;;-1.20;71.07
54122;BME280;40029;58.708;50.190;2024-03-08T12:16:06;98881.44;;;-1.23;71.60
54122;BME280;40029;58.708;50.190;2024-03-08T12:18:38;98888.28;;;-1.16;70.80
54122;BME280;40029;58.708;50.190;2024-03-08T12:21:11;98886.53;;;-1.15;70.70
54122;BME280;40029;58.708;50.190;2024-03-08T12:23:45;98883.94;;;-1.15;70.62
54122;BME280;40029;58.708;50.190;2024-03-08T12:26:36;98891.00;;;-1.33;71.78
54122;BME280;40029;58.708;50.190;2024-03-08T12:29:27;98889.28;;;-1.34;71.63
54122;BME280;40029;58.708;50.190;2024-03-08T12:31:59;98893.78;;;-1.56;72.61
54122;BME280;40029;58.708;50.190;2024-03-08T12:34:32;98895.56;;;-1.64;73.72
54122;BME280;40029;58.708;50.190;2024-03-08T12:37:03;98892.13;;;-1.66;73.71
54122;BME280;40029;58.708;50.190;2024-03-08T12:39:37;98895.41;;;-1.44;72.76
54122;BME280;40029;58.708;50.190;2024-03-08T12:42:10;98892.88;;;-1.47;73.46
54122;BME280;40029;58.708;50.190;2024-03-08T12:44:42;98892.03;;;-1.51;73.07
54122;BME280;40029;58.708;50.190;2024-03-08T12:47:14;98893.72;;;-1.51;72.93
54122;BME280;40029;58.708;50.190;2024-03-08T12:49:45;98898.97;;;-1.61;74.23
54122;BME280;40029;58.708;50.190;2024-03-08T12:52:16;98897.28;;;-1.66;74.21
54122;BME280;40029;58.708;50.190;2024-03-08T12:54:49;98900.84;;;-1.75;75.07
54122;BME280;40029;58.708;50.190;2024-03-08T12:57:20;98901.63;;;-1.64;74.46
54122;BME280;40029;58.708;50.190;2024-03-08T12:59:51;98903.38;;;-1.72;75.61
54122;BME280;40029;58.708;50.190;2024-03-08T13:02:25;98908.44;;;-1.53;74.62
54122;BME280;40029;58.708;50.190;2024-03-08T13:04:56;98909.47;;;-1.73;75.61
54122;BME280;40029;58.708;50.190;2024-03-08T13:07:31;98909.47;;;-1.75;76.09
54122;BME280;40029;58.708;50.190;2024-03-08T13:10:03;98901.56;;;-1.61;75.12
54122;BME280;40029;58.708;50.190;2024-03-08T13:12:35;98909.25;;;-1.45;74.64
54122;BME280;40029;58.708;50.190;2024-03-08T13:15:09;98902.34;;;-1.43;74.61
54122;BME280;40029;58.708;50.190;2024-03-08T13:17:51;98906.69;;;-1.45;74.91
54122;BME280;40029;58.708;50.190;2024-03-08T13:20:22;98908.38;;;-1.44;74.96
54122;BME280;40029;58.708;50.190;2024-03-08T13:22:54;98915.38;;;-1.56;75.52
54122;BME280;40029;58.708;50.190;2024-03-08T13:25:26;98918.94;;;-1.70;75.75
54122;BME280;40029;58.708;50.190;2024-03-08T13:27:57;98911.94;;;-1.61;75.12